Time;durP1;ratioP1;P1;durP2;ratioP2;P2;SDS_P1;SDS_P2;PMS_P1;PMS_P2;Temp;Humidity;BMP_temperature;BMP_pressure;BME280_temperature;BME280_humidity;BME280_pressure;Samples;Min_cycle;Max_cycle;Signal;HPM_P1;HPM_P2
2023/06/13 00:01:14;;;;;;;4.83;3.87;;;18.30;42.20;;;;;;5073803;28;20447;-56
2023/06/13 00:03:42;;;;;;;4.50;3.97;;;18.20;42.20;;;;;;5074526;28;20547;-55
2023/06/13 00:06:09;;;;;;;4.13;3.80;;;18.20;42.20;;;;;;5074272;28;20446;-55
2023/06/13 00:08:35;;;;;;;6.77;4.20;;;18.10;42.10;;;;;;5074024;28;20538;-56
2023/06/13 00:11:02;;;;;;;4.90;3.50;;;18.10;42.20;;;;;;5073958;28;20447;-56
2023/06/13 00:13:29;;;;;;;5.30;4.10;;;18.10;42.10;;;;;;5074157;28;20512;-57
2023/06/13 00:15:58;;;;;;;5.47;3.93;;;18.00;42.10;;;;;;5074063;28;20451;-56
2023/06/13 00:18:29;;;;;;;5.10;4.13;;;18.00;42.10;;;;;;5074949;28;20447;-55
2023/06/13 00:20:58;;;;;;;3.53;3.00;;;18.00;42.20;;;;;;5073675;28;20515;-56
2023/06/13 00:23:32;;;;;;;4.20;3.80;;;17.90;42.20;;;;;;5079491;28;20474;-54
2023/06/13 00:25:58;;;;;;;7.10;3.77;;;17.90;42.20;;;;;;5074169;28;20447;-58
2023/06/13 00:28:25;;;;;;;5.80;4.37;;;17.90;42.30;;;;;;5077697;28;20443;-58
2023/06/13 00:30:52;;;;;;;7.47;3.50;;;17.80;42.30;;;;;;5077450;28;20496;-58
2023/06/13 00:33:19;;;;;;;4.97;3.70;;;17.80;42.30;;;;;;5077416;28;20453;-59
2023/06/13 00:35:46;;;;;;;6.50;3.50;;;17.80;42.40;;;;;;5078036;28;20450;-58
2023/06/13 00:38:14;;;;;;;3.83;3.17;;;17.70;42.30;;;;;;5077524;28;20439;-58
2023/06/13 00:40:41;;;;;;;7.43;3.43;;;17.70;42.30;;;;;;5076971;28;20454;-58
2023/06/13 00:43:08;;;;;;;6.13;3.50;;;17.70;42.40;;;;;;5076808;28;20815;-58
2023/06/13 00:45:35;;;;;;;4.00;3.60;;;17.70;42.40;;;;;;5077803;28;20443;-58
2023/06/13 00:48:04;;;;;;;4.23;3.10;;;17.60;42.40;;;;;;5077291;28;20446;-58
2023/06/13 00:50:34;;;;;;;7.20;3.43;;;17.60;42.50;;;;;;5077220;28;20945;-58
2023/06/13 00:53:03;;;;;;;4.43;3.50;;;17.50;42.50;;;;;;5077581;28;20537;-59
2023/06/13 00:55:32;;;;;;;6.70;4.00;;;17.50;42.50;;;;;;5076615;28;20534;-58
2023/06/13 00:58:06;;;;;;;4.47;3.00;;;17.50;42.60;;;;;;5077119;28;20489;-58
2023/06/13 01:00:33;;;;;;;4.13;3.33;;;17.40;42.60;;;;;;5077451;28;20431;-58
2023/06/13 01:03:02;;;;;;;3.20;2.90;;;17.40;43.00;;;;;;5077438;28;20852;-58
2023/06/13 01:05:31;;;;;;;5.97;3.83;;;17.40;42.70;;;;;;5076922;28;20461;-58
2023/06/13 01:07:59;;;;;;;4.53;3.70;;;17.40;42.80;;;;;;5076915;28;20463;-58
2023/06/13 01:10:26;;;;;;;5.93;3.20;;;17.30;42.80;;;;;;5076615;28;20538;-58
2023/06/13 01:13:04;;;;;;;3.57;3.27;;;17.30;42.90;;;;;;5076730;28;20960;-58
2023/06/13 01:15:36;;;;;;;5.53;3.23;;;17.30;42.80;;;;;;5076716;28;20428;-58
2023/06/13 01:18:05;;;;;;;3.83;3.53;;;17.30;42.90;;;;;;5076706;28;20463;-58
2023/06/13 01:20:34;;;;;;;3.93;3.53;;;17.20;42.90;;;;;;5076826;28;20451;-58
2023/06/13 01:23:18;;;;;;;4.00;3.10;;;17.20;43.00;;;;;;5076539;28;20496;-59
2023/06/13 01:25:57;;;;;;;4.13;3.30;;;17.20;43.00;;;;;;5077112;28;20502;-59
2023/06/13 01:28:26;;;;;;;3.40;3.10;;;17.20;43.10;;;;;;5076892;28;20434;-58
2023/06/13 01:30:54;;;;;;;3.70;3.40;;;17.10;43.10;;;;;;5076243;28;20451;-58
2023/06/13 01:33:23;;;;;;;4.93;3.27;;;17.10;43.20;;;;;;5076675;28;20483;-58
2023/06/13 01:35:50;;;;;;;4.60;3.00;;;17.00;43.20;;;;;;5076207;28;20443;-57
2023/06/13 01:38:17;;;;;;;4.77;3.73;;;17.00;43.30;;;;;;5075149;28;20988;-58
2023/06/13 01:40:44;;;;;;;3.50;2.70;;;17.00;43.40;;;;;;5075922;28;20447;-58
2023/06/13 01:43:11;;;;;;;3.17;2.97;;;17.00;43.50;;;;;;5075518;28;20447;-59
2023/06/13 01:45:39;;;;;;;3.50;3.20;;;16.90;43.50;;;;;;5075477;28;20953;-56
2023/06/13 01:48:14;;;;;;;4.10;3.33;;;16.90;43.60;;;;;;5075931;28;20813;-58
2023/06/13 01:50:49;;;;;;;5.50;3.40;;;16.90;43.60;;;;;;5075538;28;20831;-57
2023/06/13 01:53:24;;;;;;;4.87;2.97;;;16.90;43.70;;;;;;5076429;28;20518;-58
2023/06/13 01:55:56;;;;;;;3.30;3.00;;;16.80;43.70;;;;;;5075623;28;20940;-58
2023/06/13 01:58:27;;;;;;;3.97;3.27;;;16.80;43.80;;;;;;5075692;28;20482;-57
2023/06/13 02:00:56;;;;;;;3.83;3.50;;;16.70;43.90;;;;;;5075563;28;20808;-59
2023/06/13 02:03:24;;;;;;;3.60;3.30;;;16.70;44.00;;;;;;5075422;28;20558;-59
2023/06/13 02:05:51;;;;;;;4.40;3.20;;;16.60;44.10;;;;;;5075941;28;20461;-58
2023/06/13 02:08:18;;;;;;;4.10;3.70;;;16.50;44.20;;;;;;5075994;28;20450;-58
2023/06/13 02:10:45;;;;;;;5.33;3.67;;;16.50;44.30;;;;;;5076274;28;20435;-58
2023/06/13 02:13:12;;;;;;;3.37;3.03;;;16.40;44.40;;;;;;5075896;28;20454;-58
2023/06/13 02:15:39;;;;;;;4.70;3.23;;;16.40;44.50;;;;;;5076227;28;20439;-58
2023/06/13 02:18:09;;;;;;;3.23;2.93;;;16.30;44.60;;;;;;5076125;28;20562;-57
2023/06/13 02:20:36;;;;;;;5.00;3.57;;;16.30;44.70;;;;;;5075805;28;20514;-58
2023/06/13 02:23:03;;;;;;;4.53;3.20;;;16.20;44.80;;;;;;5076008;28;20447;-58
2023/06/13 02:25:30;;;;;;;4.90;3.67;;;16.20;44.90;;;;;;5075781;28;20451;-57
2023/06/13 02:27:57;;;;;;;3.40;2.90;;;16.10;45.10;;;;;;5075463;28;20439;-57
2023/06/13 02:30:24;;;;;;;4.57;3.90;;;16.10;45.20;;;;;;5075146;28;20447;-57
2023/06/13 02:32:52;;;;;;;4.80;3.13;;;16.00;45.30;;;;;;5075087;28;20949;-57
2023/06/13 02:35:23;;;;;;;4.73;3.40;;;15.90;45.50;;;;;;5075406;28;20467;-57
2023/06/13 02:37:53;;;;;;;5.90;3.30;;;15.90;45.80;;;;;;5075455;28;20467;-57
2023/06/13 02:40:19;;;;;;;3.73;3.27;;;15.80;46.00;;;;;;5074832;28;20487;-57
2023/06/13 02:42:48;;;;;;;4.80;3.53;;;15.80;46.10;;;;;;5074428;28;20442;-57
2023/06/13 02:45:15;;;;;;;4.83;3.70;;;15.70;46.30;;;;;;5074548;28;20508;-57
2023/06/13 02:47:42;;;;;;;5.60;4.10;;;15.70;46.50;;;;;;5074555;28;20446;-58
2023/06/13 02:50:09;;;;;;;3.97;2.70;;;15.60;46.60;;;;;;5073884;28;20447;-56
2023/06/13 02:52:38;;;;;;;3.77;3.47;;;15.60;46.80;;;;;;5074033;28;20817;-57
2023/06/13 02:55:08;;;;;;;3.80;3.00;;;15.50;47.00;;;;;;5077043;28;20467;-54
2023/06/13 02:57:36;;;;;;;4.50;3.50;;;15.50;47.20;;;;;;5078479;28;20524;-56
2023/06/13 03:00:07;;;;;;;3.47;3.17;;;15.40;47.30;;;;;;5079671;28;20458;-56
2023/06/13 03:02:36;;;;;;;6.27;3.70;;;15.40;47.60;;;;;;5078942;28;20436;-58
2023/06/13 03:05:05;;;;;;;4.70;3.67;;;15.30;47.70;;;;;;5077711;28;20474;-57
2023/06/13 03:07:32;;;;;;;5.07;3.30;;;15.20;47.90;;;;;;5077622;28;20534;-57
2023/06/13 03:10:00;;;;;;;5.83;3.80;;;15.20;48.00;;;;;;5077978;28;20439;-57
2023/06/13 03:12:27;;;;;;;5.10;3.30;;;15.20;48.30;;;;;;5077272;28;20447;-56
2023/06/13 03:14:54;;;;;;;5.10;4.10;;;15.20;48.40;;;;;;5074245;28;20835;-56
2023/06/13 03:17:21;;;;;;;3.70;3.40;;;15.10;48.40;;;;;;5073711;28;20838;-56
2023/06/13 03:19:48;;;;;;;4.50;3.90;;;15.10;48.60;;;;;;5074015;28;20561;-56
2023/06/13 03:22:15;;;;;;;3.40;3.00;;;15.10;48.70;;;;;;5073958;28;20482;-57
2023/06/13 03:24:42;;;;;;;3.20;2.87;;;15.10;48.90;;;;;;5074160;28;20470;-56
2023/06/13 03:27:12;;;;;;;3.60;3.27;;;15.10;49.10;;;;;;5073496;28;20932;-57
2023/06/13 03:29:40;;;;;;;7.67;3.77;;;15.00;49.10;;;;;;5073521;28;20458;-57
2023/06/13 03:32:07;;;;;;;4.43;3.13;;;15.00;49.30;;;;;;5073634;28;20451;-57
2023/06/13 03:34:37;;;;;;;3.77;3.47;;;15.00;49.40;;;;;;5073665;28;20467;-56
2023/06/13 03:37:05;;;;;;;3.67;3.37;;;14.90;49.40;;;;;;5073747;28;20447;-56
2023/06/13 03:39:31;;;;;;;3.23;2.93;;;14.90;50.10;;;;;;5073221;28;20451;-55
2023/06/13 03:41:58;;;;;;;5.67;3.40;;;14.90;49.50;;;;;;5073469;28;20828;-56
2023/06/13 03:44:27;;;;;;;5.50;3.60;;;14.90;49.60;;;;;;5073626;28;20462;-57
2023/06/13 03:46:55;;;;;;;4.30;3.47;;;14.90;49.70;;;;;;5073302;28;20447;-57
2023/06/13 03:49:22;;;;;;;4.27;3.77;;;15.00;49.90;;;;;;5073754;28;20470;-58
2023/06/13 03:51:49;;;;;;;3.87;3.10;;;15.00;49.80;;;;;;5073262;28;20450;-56
2023/06/13 03:54:16;;;;;;;3.53;3.23;;;15.10;49.70;;;;;;5073182;28;20463;-56
2023/06/13 03:56:43;;;;;;;3.60;3.30;;;15.20;49.60;;;;;;5072851;28;20937;-57
2023/06/13 03:59:10;;;;;;;4.27;3.20;;;15.50;49.50;;;;;;5073018;28;20483;-57
2023/06/13 04:01:41;;;;;;;4.30;3.30;;;15.80;49.00;;;;;;5072688;28;20443;-58
2023/06/13 04:04:08;;;;;;;4.23;3.40;;;16.10;48.60;;;;;;5072921;28;20485;-58
2023/06/13 04:06:37;;;;;;;10.07;3.70;;;16.30;48.20;;;;;;5072939;28;20447;-56
2023/06/13 04:11:50;;;;;;;4.23;2.70;;;16.20;47.60;;;;;;5091084;27;20546;-55
2023/06/13 04:14:16;;;;;;;6.60;3.00;;;16.00;48.10;;;;;;5090514;28;20512;-56
2023/06/13 04:19:09;;;;;;;5.43;3.43;;;15.70;48.60;;;;;;5108415;22;20574;-56
2023/06/13 04:21:35;;;;;;;4.20;3.00;;;15.80;48.70;;;;;;5070097;28;20223;-57
2023/06/13 04:24:02;;;;;;;3.40;3.10;;;16.20;48.40;;;;;;5070196;28;20482;-53
2023/06/13 04:26:29;;;;;;;6.23;4.23;;;16.60;47.80;;;;;;5069895;28;20479;-56
2023/06/13 04:28:58;;;;;;;5.80;3.23;;;17.10;47.10;;;;;;5069677;28;21015;-55
2023/06/13 04:31:25;;;;;;;4.50;3.07;;;17.30;46.40;;;;;;5069513;28;21009;-57
2023/06/13 04:33:55;;;;;;;4.27;3.20;;;17.70;46.00;;;;;;5070168;28;20471;-55
2023/06/13 04:36:24;;;;;;;3.43;3.13;;;18.00;45.40;;;;;;5070233;28;20447;-54
2023/06/13 04:38:53;;;;;;;4.70;3.10;;;18.20;44.80;;;;;;5069622;28;20471;-55
2023/06/13 04:41:20;;;;;;;5.17;3.00;;;18.40;44.30;;;;;;5069266;28;20455;-57
2023/06/13 04:43:46;;;;;;;3.83;3.00;;;18.60;44.00;;;;;;5069894;28;20443;-56
2023/06/13 04:46:18;;;;;;;9.03;3.50;;;18.70;43.70;;;;;;5069748;28;20439;-56
2023/06/13 04:48:45;;;;;;;6.73;3.20;;;18.90;44.00;;;;;;5069550;28;20463;-56
2023/06/13 04:51:12;;;;;;;5.37;3.43;;;19.00;43.00;;;;;;5069324;28;20479;-56
2023/06/13 04:53:39;;;;;;;3.63;2.73;;;19.20;43.30;;;;;;5070132;28;20451;-55
2023/06/13 04:56:06;;;;;;;3.90;2.97;;;19.50;42.50;;;;;;5069831;28;20443;-58
2023/06/13 04:58:33;;;;;;;3.23;2.90;;;19.60;42.10;;;;;;5069808;28;20477;-56
2023/06/13 05:01:00;;;;;;;5.77;2.67;;;19.70;41.70;;;;;;5068648;28;20944;-57
2023/06/13 05:03:28;;;;;;;4.07;2.67;;;19.80;41.40;;;;;;5068954;28;20495;-56
2023/06/13 05:05:55;;;;;;;4.23;3.23;;;19.90;41.20;;;;;;5069034;28;20798;-56
2023/06/13 05:08:21;;;;;;;3.40;2.90;;;20.00;41.30;;;;;;5069058;28;20476;-55
2023/06/13 05:10:48;;;;;;;4.93;3.30;;;20.10;41.40;;;;;;5068800;28;20474;-56
2023/06/13 05:13:15;;;;;;;7.80;3.30;;;20.30;41.30;;;;;;5068293;28;20451;-56
2023/06/13 05:15:44;;;;;;;6.33;2.93;;;20.60;40.90;;;;;;5068437;28;20470;-56
2023/06/13 05:18:12;;;;;;;3.33;3.03;;;20.90;40.60;;;;;;5069069;28;20491;-55
2023/06/13 05:20:41;;;;;;;4.77;3.17;;;21.20;40.20;;;;;;5068883;28;21027;-58
2023/06/13 05:23:08;;;;;;;3.70;2.73;;;21.30;40.00;;;;;;5055712;28;20460;-56
2023/06/13 05:25:36;;;;;;;5.43;3.17;;;21.30;39.60;;;;;;5055798;28;20461;-56
2023/06/13 05:28:03;;;;;;;5.83;2.70;;;21.40;39.30;;;;;;5055519;28;20467;-56
2023/06/13 05:30:30;;;;;;;5.53;3.00;;;21.20;39.10;;;;;;5055528;28;21006;-55
2023/06/13 05:32:57;;;;;;;4.13;3.20;;;21.00;39.10;;;;;;5056017;28;20798;-56
2023/06/13 05:35:24;;;;;;;6.00;3.17;;;20.90;39.00;;;;;;5055650;28;20473;-56
2023/06/13 05:37:52;;;;;;;7.40;2.97;;;20.70;39.10;;;;;;5055473;28;20471;-55
2023/06/13 05:40:19;;;;;;;4.70;3.30;;;20.70;39.10;;;;;;5054900;28;20445;-56
2023/06/13 05:42:46;;;;;;;4.10;2.97;;;20.70;39.10;;;;;;5055309;28;20445;-55
2023/06/13 05:45:13;;;;;;;7.90;3.13;;;20.70;39.00;;;;;;5055167;28;20471;-56
2023/06/13 05:47:40;;;;;;;6.53;3.60;;;20.60;39.10;;;;;;5055950;28;20471;-55
2023/06/13 05:50:07;;;;;;;6.23;2.93;;;20.60;39.30;;;;;;5055158;28;20440;-56
2023/06/13 05:52:35;;;;;;;11.27;3.30;;;20.60;39.30;;;;;;5055715;28;20449;-56
2023/06/13 05:55:04;;;;;;;6.80;3.37;;;20.70;39.30;;;;;;5054938;28;20548;-56
2023/06/13 05:57:40;;;;;;;6.90;3.20;;;20.80;39.30;;;;;;5055310;28;20987;-56
2023/06/13 06:00:11;;;;;;;5.30;3.30;;;20.70;39.20;;;;;;5055579;28;20448;-55
2023/06/13 06:02:38;;;;;;;10.43;3.80;;;20.60;39.20;;;;;;5055345;28;20436;-57
2023/06/13 06:05:05;;;;;;;6.60;3.17;;;20.50;39.40;;;;;;5055352;28;20795;-58
2023/06/13 06:07:32;;;;;;;5.60;3.47;;;20.40;40.30;;;;;;5054854;28;21123;-56
2023/06/13 06:09:59;;;;;;;4.17;3.47;;;20.20;39.90;;;;;;5054711;28;20502;-57
2023/06/13 06:12:27;;;;;;;8.53;3.50;;;20.20;40.10;;;;;;5055427;28;20544;-57
2023/06/13 06:14:54;;;;;;;4.10;3.30;;;20.10;40.20;;;;;;5055401;28;20449;-57
2023/06/13 06:17:21;;;;;;;8.30;3.67;;;20.00;40.50;;;;;;5055432;28;20480;-57
2023/06/13 06:19:48;;;;;;;7.47;3.40;;;19.90;40.70;;;;;;5056001;28;20460;-56
2023/06/13 06:22:15;;;;;;;17.57;4.87;;;20.00;40.90;;;;;;5054828;28;20444;-55
2023/06/13 06:24:43;;;;;;;7.87;3.97;;;20.20;40.80;;;;;;5055009;28;20452;-57
2023/06/13 06:27:11;;;;;;;5.90;3.80;;;20.30;40.60;;;;;;5054699;28;20460;-57
2023/06/13 06:29:39;;;;;;;8.23;4.03;;;20.40;40.60;;;;;;5054524;28;20957;-56
2023/06/13 06:32:08;;;;;;;12.17;4.33;;;20.50;40.50;;;;;;5054753;28;20506;-56
2023/06/13 06:34:35;;;;;;;6.57;3.93;;;20.40;40.30;;;;;;5053445;28;20458;-58
2023/06/13 06:37:03;;;;;;;6.30;3.57;;;20.50;40.40;;;;;;5054184;28;20439;-57
2023/06/13 06:39:30;;;;;;;4.57;3.47;;;20.50;40.10;;;;;;5054567;28;20446;-56
2023/06/13 06:41:57;;;;;;;5.80;3.73;;;20.60;40.10;;;;;;5054322;28;20447;-57
2023/06/13 06:44:24;;;;;;;11.10;3.60;;;20.60;39.90;;;;;;5054280;28;20536;-56
2023/06/13 06:46:52;;;;;;;12.03;4.00;;;20.60;40.10;;;;;;5054132;28;20805;-58
2023/06/13 06:49:18;;;;;;;10.10;4.17;;;20.50;40.30;;;;;;5054561;28;20442;-57
2023/06/13 06:51:46;;;;;;;10.10;4.07;;;20.50;40.50;;;;;;5057210;28;20574;-57
2023/06/13 06:54:12;;;;;;;10.60;3.90;;;20.70;40.50;;;;;;5053932;28;20471;-57
2023/06/13 06:56:39;;;;;;;12.80;4.70;;;20.80;40.30;;;;;;5053897;28;20441;-57
2023/06/13 06:59:06;;;;;;;9.97;3.00;;;20.90;40.20;;;;;;5053840;28;20507;-57
2023/06/13 07:01:33;;;;;;;7.80;4.20;;;21.00;40.10;;;;;;5054136;28;20441;-56
2023/06/13 07:04:02;;;;;;;7.47;4.20;;;21.20;40.60;;;;;;5053749;28;20961;-56
2023/06/13 07:06:29;;;;;;;10.50;3.73;;;21.30;39.90;;;;;;5053564;28;20458;-56
2023/06/13 07:08:56;;;;;;;8.80;4.03;;;21.40;39.70;;;;;;5053767;28;20468;-57
2023/06/13 07:11:23;;;;;;;13.13;3.80;;;21.40;39.80;;;;;;5053340;28;20485;-56
2023/06/13 07:13:50;;;;;;;7.57;3.97;;;21.40;39.80;;;;;;5053604;28;20441;-56
2023/06/13 07:16:16;;;;;;;8.07;4.00;;;21.30;39.90;;;;;;5053120;28;20894;-56
2023/06/13 07:18:43;;;;;;;7.47;4.23;;;21.30;39.90;;;;;;5053106;28;20487;-57
2023/06/13 07:21:11;;;;;;;11.13;4.80;;;21.40;40.00;;;;;;5053581;28;20519;-56
2023/06/13 07:23:38;;;;;;;7.90;4.10;;;21.50;40.00;;;;;;5052989;28;20468;-58
2023/06/13 07:26:05;;;;;;;8.53;3.80;;;21.50;40.10;;;;;;5053501;28;20448;-56
2023/06/13 07:28:32;;;;;;;9.80;3.77;;;21.60;40.20;;;;;;5053667;28;20469;-56
2023/06/13 07:30:59;;;;;;;5.90;4.17;;;21.70;40.10;;;;;;5053954;28;20486;-57
2023/06/13 07:33:26;;;;;;;6.00;5.00;;;21.70;39.80;;;;;;5053961;28;20453;-55
2023/06/13 07:35:53;;;;;;;11.93;4.00;;;21.80;39.70;;;;;;5053848;28;20445;-55
2023/06/13 07:38:21;;;;;;;9.63;4.80;;;21.80;39.60;;;;;;5052969;28;20453;-56
2023/06/13 07:40:48;;;;;;;8.33;4.50;;;21.90;39.60;;;;;;5053020;28;20554;-55
2023/06/13 07:43:15;;;;;;;10.70;4.53;;;22.00;39.60;;;;;;5052947;28;20479;-55
2023/06/13 07:45:42;;;;;;;11.00;5.27;;;22.10;39.50;;;;;;5053049;28;20447;-56
2023/06/13 07:48:08;;;;;;;7.70;3.30;;;22.10;39.50;;;;;;5052815;28;20474;-56
2023/06/13 07:50:35;;;;;;;6.53;3.97;;;22.20;39.50;;;;;;5052963;28;20439;-55
2023/06/13 07:53:02;;;;;;;7.43;4.00;;;22.20;39.50;;;;;;5052543;28;20442;-56
2023/06/13 07:55:30;;;;;;;7.73;4.00;;;22.30;39.60;;;;;;5052831;28;20472;-56
2023/06/13 07:57:57;;;;;;;6.30;4.20;;;22.30;39.50;;;;;;5052517;28;20561;-57
2023/06/13 08:00:24;;;;;;;12.30;4.17;;;22.30;39.50;;;;;;5052988;28;20763;-57
2023/06/13 08:02:51;;;;;;;7.90;4.03;;;22.30;39.60;;;;;;5052603;28;20442;-55
2023/06/13 08:05:18;;;;;;;11.17;4.93;;;22.30;39.60;;;;;;5052837;28;20446;-56
2023/06/13 08:07:45;;;;;;;10.33;5.83;;;22.40;39.60;;;;;;5052633;28;20476;-56
2023/06/13 08:10:12;;;;;;;5.10;4.40;;;22.60;39.50;;;;;;5053117;28;20457;-56
2023/06/13 08:12:40;;;;;;;5.57;4.50;;;22.80;39.30;;;;;;5052960;28;20483;-56
2023/06/13 08:15:08;;;;;;;6.73;3.97;;;22.90;39.10;;;;;;5055502;28;20448;-57
2023/06/13 08:17:36;;;;;;;7.27;5.60;;;23.10;39.00;;;;;;5056960;28;20471;-56
2023/06/13 08:20:04;;;;;;;5.83;4.07;;;23.20;38.90;;;;;;5053470;28;20541;-57
2023/06/13 08:22:31;;;;;;;5.80;4.27;;;23.30;38.60;;;;;;5053296;28;20444;-57
2023/06/13 08:24:57;;;;;;;7.23;4.50;;;23.40;38.30;;;;;;5052742;28;20444;-55
2023/06/13 08:27:24;;;;;;;4.83;4.03;;;23.40;38.20;;;;;;5053700;28;20483;-58
2023/06/13 08:29:52;;;;;;;7.20;4.70;;;23.50;38.20;;;;;;5054767;28;20445;-56
2023/06/13 08:32:20;;;;;;;5.83;4.43;;;23.50;38.00;;;;;;5053650;28;20571;-57
2023/06/13 08:34:47;;;;;;;5.97;4.43;;;23.60;37.90;;;;;;5053565;28;20475;-56
2023/06/13 08:37:14;;;;;;;7.93;3.80;;;23.60;37.90;;;;;;5053590;28;20478;-57
2023/06/13 08:39:41;;;;;;;4.77;4.10;;;23.70;37.90;;;;;;5053390;28;20448;-58
2023/06/13 08:42:08;;;;;;;4.67;3.90;;;23.80;37.90;;;;;;5052779;28;20449;-55
2023/06/13 08:44:36;;;;;;;6.47;4.37;;;23.90;37.80;;;;;;5052663;28;20451;-56
2023/06/13 08:47:05;;;;;;;4.30;3.90;;;24.00;37.70;;;;;;5052568;28;20472;-57
2023/06/13 08:49:32;;;;;;;4.90;3.63;;;24.00;37.80;;;;;;5052170;28;20523;-58
2023/06/13 08:52:00;;;;;;;7.37;3.67;;;24.00;38.00;;;;;;5052134;28;20480;-58
2023/06/13 08:54:29;;;;;;;12.90;4.87;;;24.10;38.10;;;;;;5052570;28;20432;-57
2023/06/13 08:56:55;;;;;;;4.83;4.03;;;24.20;37.90;;;;;;5053469;28;20436;-57
2023/06/13 08:59:26;;;;;;;13.17;4.10;;;24.30;37.90;;;;;;5056331;28;20455;-53
2023/06/13 09:01:54;;;;;;;5.83;3.80;;;24.40;37.90;;;;;;5056350;28;20460;-55
2023/06/13 09:04:23;;;;;;;4.87;4.20;;;24.40;37.80;;;;;;5055919;28;20818;-57
2023/06/13 09:06:51;;;;;;;5.30;4.13;;;24.60;37.70;;;;;;5055706;28;20485;-56
2023/06/13 09:09:18;;;;;;;4.60;4.20;;;24.70;37.60;;;;;;5055922;28;20453;-55
2023/06/13 09:11:48;;;;;;;4.43;3.90;;;24.90;37.40;;;;;;5055444;28;21018;-56
2023/06/13 09:14:15;;;;;;;4.57;3.83;;;24.90;37.20;;;;;;5055655;28;20457;-55
2023/06/13 09:16:43;;;;;;;4.70;4.30;;;25.00;36.80;;;;;;5055673;28;20792;-56
2023/06/13 09:19:10;;;;;;;6.90;4.10;;;25.10;36.50;;;;;;5055395;28;20466;-54
2023/06/13 09:21:40;;;;;;;4.80;4.30;;;25.30;36.30;;;;;;5055667;28;20441;-54
2023/06/13 09:24:08;;;;;;;10.90;4.60;;;25.40;36.00;;;;;;5055736;28;20454;-54
2023/06/13 09:26:35;;;;;;;6.43;4.83;;;25.30;35.80;;;;;;5055431;28;20446;-56
2023/06/13 09:29:01;;;;;;;5.83;4.53;;;25.30;35.80;;;;;;5055676;28;20463;-56
2023/06/13 09:31:29;;;;;;;5.33;4.57;;;25.40;35.70;;;;;;5055582;28;20486;-57
2023/06/13 09:34:00;;;;;;;5.50;4.93;;;25.50;35.50;;;;;;5055410;28;20447;-56
2023/06/13 09:36:27;;;;;;;5.93;4.20;;;25.70;35.40;;;;;;5055499;28;20470;-56
2023/06/13 09:38:55;;;;;;;6.33;3.50;;;25.80;35.30;;;;;;5056369;28;20521;-58
2023/06/13 09:41:22;;;;;;;4.87;4.03;;;25.90;35.20;;;;;;5055482;28;20450;-57
2023/06/13 09:43:52;;;;;;;5.53;5.00;;;26.00;34.60;;;;;;5055835;28;20490;-57
2023/06/13 09:46:19;;;;;;;6.37;4.87;;;26.00;34.30;;;;;;5056074;28;20447;-58
2023/06/13 09:48:46;;;;;;;4.57;4.17;;;26.00;34.20;;;;;;5055528;28;20466;-58
2023/06/13 09:51:13;;;;;;;4.53;4.13;;;26.00;34.20;;;;;;5055185;28;20467;-56
2023/06/13 09:53:40;;;;;;;5.10;4.60;;;26.10;34.20;;;;;;5056100;28;20436;-56
2023/06/13 09:56:10;;;;;;;5.50;4.70;;;26.20;34.00;;;;;;5055488;28;20443;-58
2023/06/13 09:58:37;;;;;;;5.30;4.30;;;26.30;33.80;;;;;;5055232;28;20461;-56
2023/06/13 10:01:04;;;;;;;5.10;4.60;;;26.40;33.70;;;;;;5054522;28;20442;-58
2023/06/13 10:03:32;;;;;;;5.70;4.40;;;26.50;33.10;;;;;;5056288;28;20864;-56
2023/06/13 10:05:59;;;;;;;4.73;4.33;;;26.50;32.60;;;;;;5056230;28;20450;-58
2023/06/13 10:08:26;;;;;;;4.13;3.73;;;26.50;32.50;;;;;;5055791;28;20468;-57
2023/06/13 10:10:54;;;;;;;8.17;4.60;;;26.60;32.70;;;;;;5056222;28;20543;-57
2023/06/13 10:13:26;;;;;;;4.67;4.17;;;26.60;32.60;;;;;;5055411;28;20557;-58
2023/06/13 10:15:55;;;;;;;5.10;4.60;;;26.70;31.50;;;;;;5056331;28;20424;-58
2023/06/13 10:18:25;;;;;;;6.20;4.40;;;26.70;31.30;;;;;;5089247;22;20494;-57
2023/06/13 10:20:54;;;;;;;4.83;4.20;;;26.80;31.20;;;;;;5076962;28;21039;-55
2023/06/13 10:23:22;;;;;;;5.83;4.90;;;26.90;31.00;;;;;;5076058;28;20441;-54
2023/06/13 10:25:52;;;;;;;7.93;4.33;;;27.10;30.50;;;;;;5076445;28;20449;-56
2023/06/13 10:28:32;;;;;;;7.83;4.80;;;27.20;30.10;;;;;;5076692;28;20823;-56
2023/06/13 10:31:10;;;;;;;5.63;4.70;;;27.40;29.70;;;;;;5077456;28;20437;-57
2023/06/13 10:34:00;;;;;;;5.27;4.73;;;27.70;29.40;;;;;;5077664;28;20467;-56
2023/06/13 10:36:47;;;;;;;7.13;5.23;;;27.90;29.20;;;;;;5077779;28;20482;-56
2023/06/13 10:39:37;;;;;;;5.33;4.40;;;28.00;28.70;;;;;;5077033;28;21096;-57
2023/06/13 10:42:20;;;;;;;4.80;4.33;;;28.30;28.30;;;;;;5077087;28;20420;-56
2023/06/13 10:44:56;;;;;;;8.17;4.60;;;28.50;27.90;;;;;;5077599;28;20452;-56
2023/06/13 10:47:24;;;;;;;5.47;4.47;;;28.50;27.50;;;;;;5076971;28;20421;-56
2023/06/13 10:49:53;;;;;;;7.40;4.90;;;28.40;27.10;;;;;;5077149;28;20510;-56
2023/06/13 10:52:20;;;;;;;5.50;5.00;;;28.50;26.90;;;;;;5076685;28;20534;-57
2023/06/13 10:54:54;;;;;;;6.03;5.43;;;28.60;26.80;;;;;;5077805;28;20458;-57
2023/06/13 10:57:20;;;;;;;5.50;4.47;;;28.70;26.70;;;;;;5078192;28;20531;-56
2023/06/13 10:59:50;;;;;;;5.60;5.10;;;28.80;26.70;;;;;;5079632;28;20446;-57
2023/06/13 11:02:18;;;;;;;10.10;7.73;;;29.00;26.70;;;;;;5080330;28;20441;-56
2023/06/13 11:04:51;;;;;;;12.70;9.13;;;29.10;26.60;;;;;;5079575;28;20449;-57
2023/06/13 11:07:30;;;;;;;11.00;7.93;;;29.00;26.50;;;;;;5079696;28;20439;-56
2023/06/13 11:10:12;;;;;;;10.20;6.63;;;29.00;26.60;;;;;;5077919;28;20457;-58
2023/06/13 11:12:39;;;;;;;5.00;4.50;;;28.90;26.70;;;;;;5076159;28;20469;-56
2023/06/13 11:15:21;;;;;;;6.27;4.77;;;28.90;26.60;;;;;;5076626;28;20449;-56
2023/06/13 11:18:16;;;;;;;5.13;4.23;;;28.80;26.60;;;;;;5076341;28;20465;-57
2023/06/13 11:20:48;;;;;;;6.20;4.67;;;28.60;26.60;;;;;;5075683;28;20449;-58
2023/06/13 11:23:17;;;;;;;6.70;4.80;;;28.50;26.90;;;;;;5076553;28;21009;-57
2023/06/13 11:25:44;;;;;;;5.87;4.80;;;28.50;26.80;;;;;;5075948;28;20467;-56
2023/06/13 11:28:13;;;;;;;6.90;4.93;;;28.50;26.70;;;;;;5076808;28;20476;-56
2023/06/13 11:30:43;;;;;;;6.57;4.20;;;28.50;26.50;;;;;;5076933;28;20475;-59
2023/06/13 11:33:10;;;;;;;6.60;4.70;;;28.40;26.30;;;;;;5076828;28;20475;-57
2023/06/13 11:35:39;;;;;;;4.40;3.93;;;28.30;26.30;;;;;;5076695;28;20440;-59
2023/06/13 11:38:15;;;;;;;6.63;4.30;;;28.30;26.20;;;;;;5075312;28;20463;-56
2023/06/13 11:40:46;;;;;;;7.90;4.73;;;28.30;26.10;;;;;;5074908;28;20431;-56
2023/06/13 11:43:14;;;;;;;6.30;4.80;;;28.40;26.10;;;;;;5074779;28;20424;-55
2023/06/13 11:45:42;;;;;;;6.50;5.00;;;28.50;26.00;;;;;;5074862;28;20446;-56
2023/06/13 11:48:11;;;;;;;5.50;4.33;;;28.50;25.90;;;;;;5074861;28;20527;-58
2023/06/13 11:50:38;;;;;;;7.27;4.67;;;28.40;25.70;;;;;;5074137;28;20459;-56
2023/06/13 11:53:05;;;;;;;4.87;4.10;;;28.40;25.40;;;;;;5075225;28;20485;-56
2023/06/13 11:55:32;;;;;;;6.73;3.83;;;28.50;25.00;;;;;;5075068;28;20448;-56
2023/06/13 11:57:59;;;;;;;4.73;4.27;;;28.90;24.70;;;;;;5074392;28;20465;-57
2023/06/13 12:00:27;;;;;;;6.93;4.33;;;29.30;24.20;;;;;;5074190;28;20484;-58
2023/06/13 12:02:56;;;;;;;5.77;4.50;;;29.90;23.90;;;;;;5074360;28;20448;-57
2023/06/13 12:05:23;;;;;;;5.20;4.57;;;30.60;23.40;;;;;;5074269;28;20446;-56
2023/06/13 12:07:50;;;;;;;4.83;4.43;;;30.90;22.90;;;;;;5074620;28;20508;-57
2023/06/13 12:10:18;;;;;;;5.13;4.53;;;31.00;22.70;;;;;;5074832;28;20454;-57
2023/06/13 12:12:56;;;;;;;4.93;4.50;;;31.00;22.70;;;;;;5073946;28;20567;-57
2023/06/13 12:15:24;;;;;;;5.30;4.80;;;31.00;22.80;;;;;;5073629;28;20444;-57
2023/06/13 12:18:00;;;;;;;4.90;4.37;;;31.30;22.70;;;;;;5073261;28;20476;-56
2023/06/13 12:20:27;;;;;;;4.97;4.57;;;31.70;22.60;;;;;;5073882;28;20508;-59
2023/06/13 12:22:58;;;;;;;5.10;4.67;;;32.00;22.20;;;;;;5073271;28;20550;-58
2023/06/13 12:25:28;;;;;;;4.67;4.27;;;32.20;21.90;;;;;;5073522;28;20446;-57
2023/06/13 12:27:55;;;;;;;6.40;5.27;;;32.10;21.80;;;;;;5073851;28;20457;-56
2023/06/13 12:30:22;;;;;;;5.90;4.57;;;31.90;21.90;;;;;;5074354;28;20447;-56
2023/06/13 12:32:56;;;;;;;4.63;4.23;;;32.10;21.70;;;;;;5077774;28;20483;-57
2023/06/13 12:35:25;;;;;;;5.47;4.60;;;32.20;21.50;;;;;;5079087;28;20438;-56
2023/06/13 12:37:58;;;;;;;5.37;4.80;;;32.10;21.50;;;;;;5079463;28;20469;-57
2023/06/13 12:40:31;;;;;;;5.00;4.27;;;31.90;21.90;;;;;;5080513;28;20436;-58
2023/06/13 12:43:00;;;;;;;4.90;4.40;;;31.40;22.40;;;;;;5078882;28;20431;-58
2023/06/13 12:45:27;;;;;;;7.30;4.70;;;31.10;22.90;;;;;;5079231;28;20457;-57
2023/06/13 12:47:54;;;;;;;6.77;5.17;;;30.80;23.20;;;;;;5078204;28;20521;-57
2023/06/13 12:50:25;;;;;;;5.50;4.97;;;30.50;23.40;;;;;;5078269;28;20521;-56
2023/06/13 12:53:02;;;;;;;6.70;4.83;;;30.10;23.70;;;;;;5079257;28;20460;-58
2023/06/13 12:55:30;;;;;;;7.00;5.40;;;29.60;24.00;;;;;;5078009;28;20466;-57
2023/06/13 12:57:57;;;;;;;4.90;4.50;;;29.30;24.20;;;;;;5077924;28;20460;-57